Harrisville, MI (48740)

8:01 PM EST on December 04, 2016 (GMT -0500)
Chippewa Heights Subdivsion | | Change Station

Elev 607 ft 44.49 °N, 83.39 °W | Updated 26 seconds ago

Light Snow
Light Snow
32.9 °F
Feels Like 33 °F
N
2.0
Wind Variable Wind from SE

Today
High -- | Low -- °F
--% Chance of Precip.
Yesterday
High -- | Low -- °F
Precip. -- in
Pressure 29.87 in
Visibility 2.5 miles
Clouds Mostly Cloudy 500 ft
Overcast 900 ft
Windchill 33 °F
Dew Point 32 °F
Humidity 98%
Rainfall 0.00 in
Snow Depth Not available.
7:53 AM 4:53 PM
Waxing Crescent, 27% visible
METAR KOSC 050054Z AUTO 14008KT 2 1/2SM -SN BKN005 OVC009 01/00 A2987 RMK AO2 P0002 T00120004
Pressure 29.87 in
Visibility 2.5 miles
Clouds Mostly Cloudy 500 ft
Overcast 900 ft
Windchill 33 °F
Dew Point 32 °F
Humidity 98%
Rainfall 0.00 in
Snow Depth Not available.
7:53 AM 4:53 PM
Waxing Crescent, 27% visible
METAR KOSC 050054Z AUTO 14008KT 2 1/2SM -SN BKN005 OVC009 01/00 A2987 RMK AO2 P0002 T00120004

10-Day Weather Forecast

Almanac

Astronomy

Dec. 04, 2016 Rise Set
Actual Time
Civil Twilight
Nautical Twilight
Astronomical Twilight
Moon
Length of Visible Light
Length of Day
Tomorrow will be .
, % of the Moon is Illuminated

Today's Extremes

State Highs State Lows

Community

WunderPhotos

Upload Photos

1,955,733 photos uploaded!

WunderBlog® & News

Nearby

Air Quality

  Air Quality AQ Index Pollutant
Not available.

Snow Depth

Station Depth Elevation

Earthquake Activity

City Distance Mag. Time & Date
Minimum magnitude displayed is 2.5.

Coastal Water Temperatures

Place Temperature

Stations

Nearby Weather Stations

Station Location Temp. Windchill Dew Point Humidity Wind Precip. Elev Updated Type
                   

Watches & Warnings

There are currently no watches in effect.